Flagler Beach, FL

11:24 AM EDT on September 02, 2015 (GMT -0400)
Del Boca Vista - Lehigh Woods - R-section | | Change Station
CLOSE
Current Station
Personal Weather Station
Location: Palm Coast, FL
Elevation: 26 ft
Nearby Weather Stations

Elev 26 ft 29.51 °N, 81.25 °W | Updated 14 minutes ago

Partly Cloudy
Partly Cloudy
87.2 °F
Feels Like 104 °F
N
0.0
Wind Variable Wind from SSW
Gusts 4.0 mph

Today
High -- | Low -- °F
--% Chance of Precip.
Yesterday
High -- | Low -- °F
Precip. -- in
7:02 AM 7:45 PM
Waning Gibbous, 79% visible
Pressure 30.10 in
Visibility 10.0 miles
Clouds Scattered Clouds 4700 ft
Heat Index 104 °F
Dew Point 81 °F
Humidity 81%
Rainfall 0.00 in
Snow Depth Not available.
UV 7 out of 12
Pollen 5.70 out of 12
Air Quality Not available.
Flu Activity Not available.
METAR KOMN 021450Z VRB004KT 10SM SCT047 30/25 A3010
Pressure 30.10 in
Visibility 10.0 miles
Clouds Scattered Clouds 4700 ft
Heat Index 104 °F
Dew Point 81 °F
Humidity 81%
Rainfall 0.00 in
Snow Depth Not available.
UV 7 out of 12
Pollen 5.70 out of 12
Air Quality Not available.
Flu Activity Not available.
METAR KOMN 021450Z VRB004KT 10SM SCT047 30/25 A3010

10-Day Weather Forecast

×

Almanac

Astronomy

Sep. 02, 2015 Rise Set
Actual Time
Civil Twilight
Nautical Twilight
Astronomical Twilight
Moon
Length of Visible Light
Length of Day
Tomorrow will be .
, % of the Moon is Illuminated

Today's Extremes

State Highs State Lows

Community

WunderPhotos

Upload Photos

1,851,770 photos uploaded!

WunderBlogs® & News

Nearby

Air Quality

  Air Quality AQ Index Pollutant
Not available.

Snow Depth

Station Depth Elevation

Earthquake Activity

City Distance Mag. Time & Date
Minimum magnitude displayed is 2.5.

Coastal Water Temperatures

Place Temperature

Stations

Nearby Weather Stations

Station Location Temp. Windchill Dew Point Humidity Wind Precip. Elev Updated Type